createdAt,value
2022-08-28T00:03:32.316Z,100513.47
2022-08-28T00:08:30.402Z,100518.03
2022-08-28T00:13:26.998Z,100525.47
2022-08-28T00:18:23.423Z,100523.13
2022-08-28T00:23:20.097Z,100523.38
2022-08-28T00:28:23.953Z,100522.53
2022-08-28T00:33:23.870Z,100518.31
2022-08-28T00:38:21.201Z,100516.63
2022-08-28T00:43:37.612Z,100507.31
2022-08-28T00:48:33.928Z,100509.84
2022-08-28T00:53:33.030Z,100508.44
2022-08-28T00:58:29.580Z,100505.38
2022-08-28T01:03:26.427Z,100498.44
2022-08-28T01:08:23.121Z,100504.94
2022-08-28T01:13:20.937Z,100507.88
2022-08-28T01:18:18.215Z,100503.38
2022-08-28T01:23:43.773Z,100507.47
2022-08-28T01:28:40.132Z,100509.59
2022-08-28T01:33:36.730Z,100521.72
2022-08-28T01:38:38.235Z,100512.81
2022-08-28T01:43:34.831Z,100507.91
2022-08-28T01:48:32.343Z,100521.72
2022-08-28T01:53:33.113Z,100530.00
2022-08-28T01:58:31.085Z,100533.81
2022-08-28T02:03:29.482Z,100527.59
2022-08-28T02:08:25.761Z,100532.56
2022-08-28T02:13:22.308Z,100532.13
2022-08-28T02:18:22.349Z,100531.00
2022-08-28T02:23:19.512Z,100540.56
2022-08-28T02:28:15.830Z,100533.50
2022-08-28T02:33:12.314Z,100539.28
2022-08-28T02:38:09.327Z,100540.22
2022-08-28T02:43:06.222Z,100543.63
2022-08-28T02:48:02.879Z,100544.88
2022-08-28T02:52:59.449Z,100550.09
2022-08-28T02:57:55.770Z,100554.88
2022-08-28T03:02:52.881Z,100551.53
2022-08-28T03:07:50.195Z,100546.75
2022-08-28T03:12:46.591Z,100554.59
2022-08-28T03:17:42.961Z,100568.81
2022-08-28T03:22:58.463Z,100559.53
2022-08-28T03:27:54.862Z,100569.28
2022-08-28T03:32:51.249Z,100556.59
2022-08-28T03:37:47.707Z,100548.56
2022-08-28T03:42:44.011Z,100553.50
2022-08-28T03:47:49.711Z,100560.22
2022-08-28T03:52:47.538Z,100561.19
2022-08-28T03:57:43.843Z,100558.47
2022-08-28T04:02:41.169Z,100561.09
2022-08-28T04:07:37.850Z,100558.78
2022-08-28T04:12:34.505Z,100557.19
2022-08-28T04:17:31.781Z,100577.41
2022-08-28T04:22:29.842Z,100574.88
2022-08-28T04:27:26.445Z,100577.41
2022-08-28T04:32:23.266Z,100583.88
2022-08-28T04:37:19.717Z,100585.69
2022-08-28T04:42:16.070Z,100588.38
2022-08-28T04:47:12.362Z,100593.44
2022-08-28T04:52:08.697Z,100597.94
2022-08-28T04:57:06.433Z,100612.44
2022-08-28T05:02:03.279Z,100603.63
2022-08-28T05:06:59.927Z,100607.97
2022-08-28T05:11:56.433Z,100605.16
2022-08-28T05:16:53.007Z,100605.47
2022-08-28T05:21:49.577Z,100606.72
2022-08-28T05:26:47.978Z,100611.22
2022-08-28T05:31:44.906Z,100623.03
2022-08-28T05:36:42.982Z,100615.31
2022-08-28T05:41:40.265Z,100622.84
2022-08-28T05:46:37.718Z,100622.94
2022-08-28T05:51:35.248Z,100633.59
2022-08-28T05:56:34.761Z,100626.16
2022-08-28T06:01:32.579Z,100622.53
2022-08-28T06:06:30.271Z,100618.06
2022-08-28T06:11:30.835Z,100623.00
2022-08-28T06:16:27.578Z,100625.13
2022-08-28T06:21:24.687Z,100631.50
2022-08-28T06:26:20.994Z,100636.72
2022-08-28T06:31:25.078Z,100637.84
2022-08-28T06:36:23.545Z,100660.53
2022-08-28T06:41:19.883Z,100655.97
2022-08-28T06:46:16.992Z,100659.75
2022-08-28T06:51:13.515Z,100661.91
2022-08-28T06:56:25.656Z,100661.84
2022-08-28T07:01:29.107Z,100664.53
2022-08-28T07:06:25.800Z,100675.34
2022-08-28T07:11:27.506Z,100670.44
2022-08-28T07:16:29.603Z,100670.22
2022-08-28T07:21:26.323Z,100683.75
2022-08-28T07:26:24.271Z,100677.28
2022-08-28T07:31:22.746Z,100680.38
2022-08-28T07:36:29.189Z,100687.03
2022-08-28T07:41:27.995Z,100693.06
2022-08-28T07:46:24.388Z,100689.72
2022-08-28T07:51:20.823Z,100694.97
2022-08-28T07:56:17.119Z,100695.22
2022-08-28T08:01:13.505Z,100701.94
2022-08-28T08:06:10.360Z,100711.31
2022-08-28T08:11:11.221Z,100716.03
2022-08-28T08:16:11.870Z,100714.34
2022-08-28T08:21:09.898Z,100721.38
2022-08-28T08:26:07.907Z,100725.81
2022-08-28T08:31:11.945Z,100717.53
2022-08-28T08:36:09.091Z,100720.41
2022-08-28T08:41:07.324Z,100725.53
2022-08-28T08:46:03.671Z,100722.97
2022-08-28T08:51:04.628Z,100729.63
2022-08-28T08:56:03.060Z,100728.81
2022-08-28T09:01:14.754Z,100730.28
2022-08-28T09:06:18.437Z,100738.28
2022-08-28T09:11:27.314Z,100730.47
2022-08-28T09:16:29.658Z,100728.63
2022-08-28T09:21:29.402Z,100736.88
2022-08-28T09:26:26.122Z,100732.47
2022-08-28T09:31:36.988Z,100727.13
2022-08-28T09:36:34.755Z,100737.44
2022-08-28T09:41:50.087Z,100736.41
2022-08-28T09:46:51.062Z,100737.50
2022-08-28T09:51:47.408Z,100739.34
2022-08-28T09:56:44.912Z,100743.06
2022-08-28T10:01:41.261Z,100732.88
2022-08-28T10:06:43.499Z,100739.97
2022-08-28T10:12:06.547Z,100737.50
2022-08-28T10:17:26.101Z,100737.41
2022-08-28T10:22:40.664Z,100733.63
2022-08-28T10:27:53.588Z,100744.44
2022-08-28T10:32:52.671Z,100740.69
2022-08-28T10:38:01.025Z,100738.53
2022-08-28T10:43:06.007Z,100738.59
2022-08-28T10:48:15.429Z,100738.41
2022-08-28T10:53:15.667Z,100735.25
2022-08-28T10:58:21.621Z,100730.25
2022-08-28T11:03:34.556Z,100729.91
2022-08-28T11:08:33.534Z,100728.91
2022-08-28T11:13:45.876Z,100740.50
2022-08-28T11:18:51.345Z,100751.91
2022-08-28T11:23:59.494Z,100741.47
2022-08-28T11:28:55.959Z,100735.75
2022-08-28T11:33:52.923Z,100737.06
2022-08-28T11:38:52.074Z,100741.72
2022-08-28T11:43:49.842Z,100726.41
2022-08-28T11:48:48.659Z,100741.56
2022-08-28T11:53:48.022Z,100736.47
2022-08-28T11:58:54.459Z,100719.50
2022-08-28T12:04:08.021Z,100725.41
2022-08-28T12:09:05.222Z,100721.41
2022-08-28T12:14:01.559Z,100732.13
2022-08-28T12:18:59.395Z,100727.13
2022-08-28T12:23:59.222Z,100718.13
2022-08-28T12:29:01.162Z,100720.63
2022-08-28T12:34:00.842Z,100718.59
2022-08-28T12:39:00.379Z,100722.59
2022-08-28T12:43:58.334Z,100720.53
2022-08-28T12:48:56.598Z,100713.22
2022-08-28T12:54:00.607Z,100713.06
2022-08-28T12:59:16.987Z,100725.09
2022-08-28T13:04:39.758Z,100718.22
2022-08-28T13:09:36.675Z,100709.59
2022-08-28T13:14:43.364Z,100694.28
2022-08-28T13:19:40.368Z,100692.16
2022-08-28T13:24:44.493Z,100697.56
2022-08-28T13:29:55.680Z,100704.63
2022-08-28T13:35:12.858Z,100703.47
2022-08-28T13:40:24.445Z,100697.19
2022-08-28T13:45:25.958Z,100685.41
2022-08-28T13:50:23.779Z,100690.75
2022-08-28T13:55:20.157Z,100683.16
2022-08-28T14:00:19.043Z,100685.22
2022-08-28T14:05:15.463Z,100676.63
2022-08-28T14:10:11.766Z,100688.19
2022-08-28T14:15:08.202Z,100681.13
2022-08-28T14:20:04.848Z,100672.78
2022-08-28T14:25:01.498Z,100671.22
2022-08-28T14:29:57.795Z,100673.56
2022-08-28T14:34:54.085Z,100668.28
2022-08-28T14:39:51.043Z,100664.56
2022-08-28T14:44:47.397Z,100668.03
2022-08-28T14:49:43.945Z,100661.88
2022-08-28T14:54:40.518Z,100654.63
2022-08-28T14:59:36.815Z,100664.00
2022-08-28T15:04:35.316Z,100659.50
2022-08-28T15:09:33.971Z,100664.25
2022-08-28T15:14:30.592Z,100664.69
2022-08-28T15:19:27.163Z,100673.63
2022-08-28T15:24:25.588Z,100668.31
2022-08-28T15:29:21.906Z,100665.81
2022-08-28T15:34:20.170Z,100655.19
2022-08-28T15:39:35.599Z,100659.78
2022-08-28T15:44:32.642Z,100656.53
2022-08-28T15:49:30.870Z,100673.28
2022-08-28T15:54:28.783Z,100671.59
2022-08-28T15:59:25.079Z,100671.59
2022-08-28T16:04:40.447Z,100663.19
2022-08-28T16:09:36.777Z,100665.34
2022-08-28T16:14:33.634Z,100667.28
2022-08-28T16:19:30.043Z,100665.97
2022-08-28T16:24:26.321Z,100667.19
2022-08-28T16:29:22.817Z,100663.38
2022-08-28T16:34:19.461Z,100668.72
2022-08-28T16:39:16.549Z,100673.72
2022-08-28T16:44:12.907Z,100673.66
2022-08-28T16:49:09.301Z,100667.41
2022-08-28T16:54:05.715Z,100666.88
2022-08-28T16:59:02.026Z,100675.69
2022-08-28T17:03:59.287Z,100670.19
2022-08-28T17:08:57.261Z,100665.66
2022-08-28T17:13:53.933Z,100657.44
2022-08-28T17:18:52.077Z,100653.59
2022-08-28T17:23:49.736Z,100664.94
2022-08-28T17:28:46.477Z,100672.03
2022-08-28T17:33:43.398Z,100670.84
2022-08-28T17:38:40.793Z,100685.91
2022-08-28T17:43:37.440Z,100699.13
2022-08-28T17:48:35.468Z,100692.94
2022-08-28T17:53:31.823Z,100697.13
2022-08-28T17:58:28.116Z,100689.44
2022-08-28T18:03:24.418Z,100695.84
2022-08-28T18:08:20.735Z,100691.66
2022-08-28T18:13:17.476Z,100693.97
2022-08-28T18:18:14.121Z,100700.16
2022-08-28T18:23:11.123Z,100703.28
2022-08-28T18:28:08.213Z,100708.78
2022-08-28T18:33:04.518Z,100709.88
2022-08-28T18:38:01.603Z,100712.47
2022-08-28T18:42:58.329Z,100727.19
2022-08-28T18:47:54.870Z,100734.00
2022-08-28T18:52:52.335Z,100740.13
2022-08-28T18:57:48.639Z,100740.69
2022-08-28T19:02:47.939Z,100744.16
2022-08-28T19:07:44.450Z,100755.13
2022-08-28T19:12:41.690Z,100755.69
2022-08-28T19:17:39.052Z,100763.56
2022-08-28T19:22:35.494Z,100770.94
2022-08-28T19:27:31.853Z,100769.81
2022-08-28T19:32:28.254Z,100770.88
2022-08-28T19:37:25.210Z,100773.34
2022-08-28T19:42:22.663Z,100786.50
2022-08-28T19:47:19.238Z,100787.88
2022-08-28T19:52:15.752Z,100785.25
2022-08-28T19:57:12.291Z,100796.88
2022-08-28T20:02:09.116Z,100799.72
2022-08-28T20:07:05.554Z,100804.25
2022-08-28T20:12:03.626Z,100807.38
2022-08-28T20:17:00.548Z,100816.69
2022-08-28T20:21:56.918Z,100804.16
2022-08-28T20:26:53.627Z,100814.47
2022-08-28T20:31:50.297Z,100817.41
2022-08-28T20:36:47.293Z,100814.75
2022-08-28T20:41:44.504Z,100820.66
2022-08-28T20:46:42.232Z,100821.78
2022-08-28T20:51:58.885Z,100829.25
2022-08-28T20:56:57.231Z,100821.34
2022-08-28T21:01:54.982Z,100817.22
2022-08-28T21:06:51.414Z,100807.09
2022-08-28T21:11:48.135Z,100820.78
2022-08-28T21:16:45.440Z,100817.66
2022-08-28T21:21:41.872Z,100825.59
2022-08-28T21:26:40.357Z,100823.06
2022-08-28T21:31:40.836Z,100833.66
2022-08-28T21:36:38.493Z,100836.94
2022-08-28T21:41:34.842Z,100834.19
2022-08-28T21:46:31.239Z,100843.44
2022-08-28T21:51:27.725Z,100837.47
2022-08-28T21:56:26.282Z,100840.56
2022-08-28T22:01:24.607Z,100843.69
2022-08-28T22:06:22.013Z,100840.75
2022-08-28T22:11:24.745Z,100845.41
2022-08-28T22:16:22.065Z,100839.59
2022-08-28T22:21:39.232Z,100833.34
2022-08-28T22:26:36.027Z,100832.41
2022-08-28T22:31:32.401Z,100821.78
2022-08-28T22:36:29.293Z,100825.97
2022-08-28T22:41:26.270Z,100828.94
2022-08-28T22:46:23.139Z,100828.53
2022-08-28T22:51:19.589Z,100818.31
2022-08-28T22:56:16.489Z,100825.66
2022-08-28T23:01:18.382Z,100824.00
2022-08-28T23:06:15.290Z,100821.31
2022-08-28T23:11:11.691Z,100819.16
2022-08-28T23:16:08.176Z,100819.47
2022-08-28T23:21:08.322Z,100825.31
2022-08-28T23:26:04.757Z,100827.00
2022-08-28T23:31:01.092Z,100819.25
2022-08-28T23:35:57.805Z,100823.41
2022-08-28T23:40:55.853Z,100812.19
2022-08-28T23:45:53.251Z,100818.25
2022-08-28T23:50:50.706Z,100804.91
2022-08-28T23:55:48.671Z,100806.34
